createdAt,value
2023-10-28T00:01:03.366Z,8.90
2023-10-28T00:03:32.176Z,8.90
2023-10-28T00:06:00.328Z,8.90
2023-10-28T00:08:29.384Z,8.80
2023-10-28T00:10:57.539Z,8.80
2023-10-28T00:13:26.911Z,8.80
2023-10-28T00:15:55.097Z,8.80
2023-10-28T00:18:23.178Z,8.80
2023-10-28T00:20:51.276Z,8.80
2023-10-28T00:23:19.351Z,8.70
2023-10-28T00:25:47.417Z,8.70
2023-10-28T00:28:15.495Z,8.70
2023-10-28T00:30:45.215Z,8.80
2023-10-28T00:33:13.334Z,8.80
2023-10-28T00:35:43.394Z,8.80
2023-10-28T00:38:12.374Z,8.80
2023-10-28T00:40:40.461Z,8.80
2023-10-28T00:43:11.662Z,8.90
2023-10-28T00:45:40.793Z,8.90
2023-10-28T00:48:10.570Z,8.90
2023-10-28T00:50:38.638Z,9.00
2023-10-28T00:53:06.986Z,9.00
2023-10-28T00:55:35.465Z,9.00
2023-10-28T00:58:03.696Z,9.00
2023-10-28T01:00:31.904Z,9.10
2023-10-28T01:02:59.970Z,9.10
2023-10-28T01:05:31.901Z,9.20
2023-10-28T01:08:00.159Z,9.20
2023-10-28T01:10:29.688Z,9.20
2023-10-28T01:12:58.511Z,9.20
2023-10-28T01:15:27.226Z,9.20
2023-10-28T01:17:55.942Z,9.20
2023-10-28T01:20:24.169Z,9.20
2023-10-28T01:22:53.677Z,9.20
2023-10-28T01:25:22.419Z,9.20
2023-10-28T01:27:50.531Z,9.20
2023-10-28T01:30:18.781Z,9.30
2023-10-28T01:32:47.339Z,9.20
2023-10-28T01:35:15.835Z,9.20
2023-10-28T01:37:44.515Z,9.20
2023-10-28T01:40:18.398Z,9.20
2023-10-28T01:42:47.338Z,9.20
2023-10-28T01:45:17.410Z,9.20
2023-10-28T01:47:45.970Z,9.30
2023-10-28T01:50:19.957Z,9.30
2023-10-28T01:52:48.140Z,9.30
2023-10-28T01:55:17.698Z,9.30
2023-10-28T01:57:45.799Z,9.30
2023-10-28T02:00:14.960Z,9.30
2023-10-28T02:02:46.243Z,9.30
2023-10-28T02:05:16.440Z,9.30
2023-10-28T02:07:44.981Z,9.30
2023-10-28T02:10:13.608Z,9.30
2023-10-28T02:12:43.073Z,9.40
2023-10-28T02:15:11.967Z,9.40
2023-10-28T02:17:40.615Z,9.40
2023-10-28T02:20:11.330Z,9.40
2023-10-28T02:22:39.775Z,9.40
2023-10-28T02:25:09.273Z,9.40
2023-10-28T02:27:39.278Z,9.50
2023-10-28T02:30:12.931Z,9.50
2023-10-28T02:32:41.140Z,9.50
2023-10-28T02:35:09.985Z,9.50
2023-10-28T02:37:38.198Z,9.50
2023-10-28T02:40:09.753Z,9.50
2023-10-28T02:42:37.884Z,9.60
2023-10-28T02:45:08.457Z,9.50
2023-10-28T02:47:38.432Z,9.60
2023-10-28T02:50:07.879Z,9.60
2023-10-28T02:52:36.021Z,9.60
2023-10-28T02:55:06.703Z,9.60
2023-10-28T02:57:34.785Z,9.60
2023-10-28T03:00:07.399Z,9.60
2023-10-28T03:02:35.978Z,9.70
2023-10-28T03:05:07.031Z,9.60
2023-10-28T03:07:35.730Z,9.70
2023-10-28T03:10:03.893Z,9.70
2023-10-28T03:12:32.052Z,9.70
2023-10-28T03:15:00.415Z,9.80
2023-10-28T03:17:28.602Z,9.80
2023-10-28T03:19:56.762Z,9.80
2023-10-28T03:22:34.700Z,9.90
2023-10-28T03:25:03.439Z,9.90
2023-10-28T03:27:33.263Z,10.00
2023-10-28T03:30:02.196Z,10.00
2023-10-28T03:32:32.162Z,10.00
2023-10-28T03:35:00.328Z,10.00
2023-10-28T03:37:32.649Z,10.00
2023-10-28T03:40:01.316Z,10.00
2023-10-28T03:42:29.415Z,10.10
2023-10-28T03:44:57.598Z,10.10
2023-10-28T03:47:26.484Z,10.10
2023-10-28T03:49:54.981Z,10.10
2023-10-28T03:52:23.158Z,10.10
2023-10-28T03:54:52.563Z,10.10
2023-10-28T03:57:20.596Z,10.10
2023-10-28T03:59:50.716Z,10.10
2023-10-28T04:02:19.022Z,10.20
2023-10-28T04:04:47.277Z,10.20
2023-10-28T04:07:15.496Z,10.10
2023-10-28T04:09:43.669Z,10.20
2023-10-28T04:12:13.153Z,10.20
2023-10-28T04:14:41.245Z,10.20
2023-10-28T04:17:09.723Z,10.20
2023-10-28T04:19:38.281Z,10.20
2023-10-28T04:22:07.499Z,10.10
2023-10-28T04:24:35.688Z,10.20
2023-10-28T04:27:03.795Z,10.10
2023-10-28T04:29:33.197Z,10.10
2023-10-28T04:32:01.313Z,10.10
2023-10-28T04:34:40.300Z,10.10
2023-10-28T04:37:16.249Z,10.10
2023-10-28T04:39:44.530Z,10.10
2023-10-28T04:42:13.161Z,10.10
2023-10-28T04:44:44.514Z,10.10
2023-10-28T04:47:13.149Z,10.10
2023-10-28T04:49:42.370Z,10.10
2023-10-28T04:52:10.546Z,10.10
2023-10-28T04:54:39.583Z,10.10
2023-10-28T04:57:07.687Z,10.10
2023-10-28T04:59:35.950Z,10.10
2023-10-28T05:02:06.770Z,10.10
2023-10-28T05:04:35.000Z,10.10
2023-10-28T05:07:03.572Z,10.10
2023-10-28T05:09:32.053Z,10.10
2023-10-28T05:12:01.564Z,10.10
2023-10-28T05:14:29.809Z,10.10
2023-10-28T05:16:57.938Z,10.00
2023-10-28T05:19:27.495Z,10.00
2023-10-28T05:21:56.002Z,9.90
2023-10-28T05:24:24.158Z,9.90
2023-10-28T05:26:54.021Z,9.90
2023-10-28T05:29:24.082Z,9.80
2023-10-28T05:31:52.395Z,9.80
2023-10-28T05:34:21.389Z,9.90
2023-10-28T05:36:50.913Z,9.90
2023-10-28T05:39:19.022Z,9.90
2023-10-28T05:41:47.083Z,9.90
2023-10-28T05:44:16.391Z,9.90
2023-10-28T05:46:45.561Z,9.80
2023-10-28T05:49:15.089Z,9.90
2023-10-28T05:51:44.417Z,9.80
2023-10-28T05:54:13.895Z,9.80
2023-10-28T05:56:41.946Z,9.70
2023-10-28T05:59:10.528Z,9.70
2023-10-28T06:01:38.681Z,9.60
2023-10-28T06:04:07.200Z,9.60
2023-10-28T06:06:35.349Z,9.50
2023-10-28T06:09:03.704Z,9.50
2023-10-28T06:11:33.171Z,9.50
2023-10-28T06:14:02.622Z,9.50
2023-10-28T06:16:30.731Z,9.50
2023-10-28T06:18:58.852Z,9.50
2023-10-28T06:21:26.907Z,9.50
2023-10-28T06:23:55.002Z,9.50
2023-10-28T06:26:23.100Z,9.60
2023-10-28T06:28:52.562Z,9.60
2023-10-28T06:31:20.639Z,9.60
2023-10-28T06:33:48.753Z,9.60
2023-10-28T06:36:19.363Z,9.70
2023-10-28T06:38:49.229Z,9.70
2023-10-28T06:41:17.377Z,9.70
2023-10-28T06:43:45.516Z,9.80
2023-10-28T06:46:15.027Z,9.80
2023-10-28T06:48:43.207Z,9.80
2023-10-28T06:51:13.808Z,9.90
2023-10-28T06:53:43.532Z,9.90
2023-10-28T06:56:12.941Z,10.00
2023-10-28T06:58:41.020Z,10.00
2023-10-28T07:01:10.684Z,10.00
2023-10-28T07:03:40.570Z,10.10
2023-10-28T07:06:10.290Z,10.10
2023-10-28T07:08:38.468Z,10.10
2023-10-28T07:11:06.742Z,10.10
2023-10-28T07:13:34.801Z,10.10
2023-10-28T07:16:03.233Z,10.20
2023-10-28T07:18:31.676Z,10.20
2023-10-28T07:21:02.247Z,10.20
2023-10-28T07:23:31.964Z,10.30
2023-10-28T07:26:02.637Z,10.30
2023-10-28T07:28:34.859Z,10.40
2023-10-28T07:31:03.809Z,10.40
2023-10-28T07:33:31.973Z,10.40
2023-10-28T07:36:03.597Z,10.40
2023-10-28T07:38:31.754Z,10.40
2023-10-28T07:41:00.120Z,10.50
2023-10-28T07:43:29.010Z,10.50
2023-10-28T07:45:57.467Z,10.60
2023-10-28T07:48:27.361Z,10.70
2023-10-28T07:50:55.715Z,10.80
2023-10-28T07:53:25.227Z,10.90
2023-10-28T07:55:53.365Z,10.90
2023-10-28T07:58:21.412Z,11.00
2023-10-28T08:00:49.515Z,11.10
2023-10-28T08:03:19.066Z,11.10
2023-10-28T08:05:47.309Z,11.10
2023-10-28T08:08:15.368Z,11.20
2023-10-28T08:10:46.366Z,11.20
2023-10-28T08:13:14.453Z,11.30
2023-10-28T08:15:42.641Z,11.40
2023-10-28T08:18:10.781Z,11.40
2023-10-28T08:20:40.437Z,11.50
2023-10-28T08:23:08.762Z,11.60
2023-10-28T08:25:36.823Z,11.60
2023-10-28T08:28:06.356Z,11.60
2023-10-28T08:30:36.771Z,11.50
2023-10-28T08:33:05.028Z,11.50
2023-10-28T08:35:34.923Z,11.50
2023-10-28T08:38:06.582Z,11.60
2023-10-28T08:40:35.976Z,11.60
2023-10-28T08:43:04.821Z,11.70
2023-10-28T08:45:34.696Z,11.70
2023-10-28T08:48:04.340Z,11.70
2023-10-28T08:50:34.753Z,11.90
2023-10-28T08:53:04.856Z,12.00
2023-10-28T08:55:33.880Z,12.10
2023-10-28T08:58:00.970Z,12.10
2023-10-28T09:00:31.403Z,12.00
2023-10-28T09:03:03.011Z,12.00
2023-10-28T09:05:31.151Z,12.00
2023-10-28T09:07:59.503Z,12.00
2023-10-28T09:10:29.236Z,12.00
2023-10-28T09:12:57.598Z,12.00
2023-10-28T09:15:26.913Z,11.90
2023-10-28T09:17:55.070Z,11.90
2023-10-28T09:20:25.267Z,11.90
2023-10-28T09:22:53.809Z,11.90
2023-10-28T09:25:23.001Z,11.90
2023-10-28T09:27:51.683Z,11.90
2023-10-28T09:30:23.094Z,11.90
2023-10-28T09:32:54.494Z,11.90
2023-10-28T09:35:26.443Z,11.80
2023-10-28T09:37:55.060Z,11.90
2023-10-28T09:40:23.606Z,12.00
2023-10-28T09:42:52.271Z,12.00
2023-10-28T09:45:20.486Z,12.10
2023-10-28T09:47:56.462Z,12.10
2023-10-28T09:50:28.398Z,12.20
2023-10-28T09:52:58.053Z,12.20
2023-10-28T09:55:28.446Z,12.20
2023-10-28T09:58:02.389Z,12.20
2023-10-28T10:00:33.018Z,12.30
2023-10-28T10:03:12.004Z,12.40
2023-10-28T10:05:44.831Z,12.40
2023-10-28T10:08:20.506Z,12.50
2023-10-28T10:10:50.299Z,12.50
2023-10-28T10:13:18.442Z,12.70
2023-10-28T10:15:57.144Z,12.70
2023-10-28T10:18:33.839Z,12.80
2023-10-28T10:21:08.115Z,12.80
2023-10-28T10:23:46.374Z,12.90
2023-10-28T10:26:24.657Z,12.90
2023-10-28T10:28:54.874Z,12.90
2023-10-28T10:31:25.390Z,13.00
2023-10-28T10:34:05.156Z,13.20
2023-10-28T10:36:38.003Z,13.20
2023-10-28T10:39:19.350Z,13.30
2023-10-28T10:41:50.954Z,13.30
2023-10-28T10:44:26.783Z,13.30
2023-10-28T10:46:59.338Z,13.30
2023-10-28T10:49:27.827Z,13.20
2023-10-28T10:51:58.403Z,13.10
2023-10-28T10:54:31.708Z,13.00
2023-10-28T10:57:00.678Z,13.00
2023-10-28T10:59:30.690Z,12.90
2023-10-28T11:01:59.013Z,13.10
2023-10-28T11:04:27.115Z,13.10
2023-10-28T11:06:55.641Z,13.10
2023-10-28T11:09:25.320Z,13.10
2023-10-28T11:11:53.526Z,13.20
2023-10-28T11:14:22.123Z,13.20
2023-10-28T11:16:51.868Z,13.20
2023-10-28T11:19:20.831Z,13.20
2023-10-28T11:21:49.472Z,13.20
2023-10-28T11:24:18.325Z,13.30
2023-10-28T11:26:48.963Z,13.40
2023-10-28T11:29:18.898Z,13.40
2023-10-28T11:31:47.696Z,13.50
2023-10-28T11:34:16.157Z,13.60
2023-10-28T11:36:44.512Z,13.70
2023-10-28T11:39:14.467Z,13.80
2023-10-28T11:41:45.272Z,13.90
2023-10-28T11:44:14.840Z,13.80
2023-10-28T11:46:42.976Z,13.90
2023-10-28T11:49:11.152Z,14.00
2023-10-28T11:51:39.305Z,14.00
2023-10-28T11:54:07.718Z,14.10
2023-10-28T11:56:35.888Z,14.10
2023-10-28T11:59:04.138Z,14.20
2023-10-28T12:01:37.683Z,14.20
2023-10-28T12:04:08.498Z,14.20
2023-10-28T12:06:36.816Z,14.10
2023-10-28T12:09:06.657Z,14.10
2023-10-28T12:11:36.700Z,14.00
2023-10-28T12:14:04.968Z,13.90
2023-10-28T12:16:36.339Z,13.80
2023-10-28T12:19:05.793Z,13.80
2023-10-28T12:21:35.864Z,13.70
2023-10-28T12:24:06.364Z,13.80
2023-10-28T12:26:35.021Z,14.00
2023-10-28T12:29:02.442Z,14.20
2023-10-28T12:31:30.542Z,14.30
2023-10-28T12:34:02.408Z,14.30
2023-10-28T12:36:30.529Z,14.30
2023-10-28T12:38:58.641Z,14.30
2023-10-28T12:41:26.935Z,14.30
2023-10-28T12:43:55.123Z,14.30
2023-10-28T12:46:23.527Z,14.30
2023-10-28T12:48:51.792Z,14.30
2023-10-28T12:51:21.966Z,14.30
2023-10-28T12:53:51.075Z,14.20
2023-10-28T12:56:19.518Z,14.10
2023-10-28T12:58:47.576Z,14.00
2023-10-28T13:01:15.653Z,14.00
2023-10-28T13:03:43.874Z,14.10
2023-10-28T13:06:11.960Z,14.10
2023-10-28T13:08:41.452Z,14.00
2023-10-28T13:11:09.673Z,13.80
2023-10-28T13:13:37.790Z,13.80
2023-10-28T13:16:06.765Z,13.80
2023-10-28T13:18:34.804Z,13.80
2023-10-28T13:21:02.968Z,13.80
2023-10-28T13:23:31.689Z,13.80
2023-10-28T13:26:01.223Z,13.80
2023-10-28T13:28:29.312Z,13.80
2023-10-28T13:30:57.436Z,13.80
2023-10-28T13:33:25.573Z,13.90
2023-10-28T13:35:53.652Z,13.90
2023-10-28T13:38:21.674Z,14.00
2023-10-28T13:40:50.251Z,14.00
2023-10-28T13:43:19.730Z,14.10
2023-10-28T13:45:47.786Z,14.20
2023-10-28T13:48:17.597Z,14.20
2023-10-28T13:50:46.867Z,14.40
2023-10-28T13:53:15.231Z,14.40
2023-10-28T13:55:43.348Z,14.40
2023-10-28T13:58:11.495Z,14.30
2023-10-28T14:00:40.861Z,14.20
2023-10-28T14:03:13.083Z,14.00
2023-10-28T14:05:41.305Z,14.00
2023-10-28T14:08:09.448Z,14.00
2023-10-28T14:10:37.573Z,14.10
2023-10-28T14:13:05.757Z,14.20
2023-10-28T14:15:37.929Z,14.10
2023-10-28T14:18:15.294Z,14.00
2023-10-28T14:20:43.425Z,14.00
2023-10-28T14:23:12.110Z,14.00
2023-10-28T14:25:40.266Z,13.90
2023-10-28T14:28:08.390Z,13.80
2023-10-28T14:30:36.478Z,13.60
2023-10-28T14:33:05.270Z,13.60
2023-10-28T14:35:35.074Z,13.50
2023-10-28T14:38:04.425Z,13.40
2023-10-28T14:40:35.298Z,13.30
2023-10-28T14:43:03.362Z,13.30
2023-10-28T14:45:31.515Z,13.30
2023-10-28T14:48:00.877Z,13.30
2023-10-28T14:50:29.261Z,13.30
2023-10-28T14:52:59.118Z,13.20
2023-10-28T14:55:29.635Z,13.20
2023-10-28T14:58:12.321Z,13.20
2023-10-28T15:00:43.777Z,13.10
2023-10-28T15:03:12.027Z,13.10
2023-10-28T15:05:43.273Z,13.10
2023-10-28T15:08:12.859Z,13.00
2023-10-28T15:10:41.223Z,12.90
2023-10-28T15:13:09.355Z,12.80
2023-10-28T15:15:38.000Z,12.70
2023-10-28T15:18:07.172Z,12.70
2023-10-28T15:20:35.422Z,12.60
2023-10-28T15:23:06.197Z,12.50
2023-10-28T15:25:37.387Z,12.50
2023-10-28T15:28:06.480Z,12.50
2023-10-28T15:30:35.632Z,12.50
2023-10-28T15:33:04.718Z,12.50
2023-10-28T15:35:32.912Z,12.50
2023-10-28T15:38:01.104Z,12.50
2023-10-28T15:40:29.303Z,12.40
2023-10-28T15:42:58.774Z,12.40
2023-10-28T15:45:26.849Z,12.30
2023-10-28T15:47:55.014Z,12.30
2023-10-28T15:50:23.187Z,12.20
2023-10-28T15:52:51.657Z,12.20
2023-10-28T15:55:19.855Z,12.30
2023-10-28T15:57:47.972Z,12.30
2023-10-28T16:00:17.889Z,12.30
2023-10-28T16:02:46.046Z,12.30
2023-10-28T16:05:14.186Z,12.30
2023-10-28T16:07:42.274Z,12.20
2023-10-28T16:10:10.726Z,12.30
2023-10-28T16:12:38.814Z,12.20
2023-10-28T16:15:09.537Z,12.20
2023-10-28T16:17:39.824Z,12.20
2023-10-28T16:20:09.016Z,12.10
2023-10-28T16:22:37.372Z,11.90
2023-10-28T16:25:05.620Z,11.90
2023-10-28T16:27:33.692Z,11.80
2023-10-28T16:30:01.827Z,11.70
2023-10-28T16:32:30.007Z,11.70
2023-10-28T16:34:59.611Z,11.60
2023-10-28T16:37:27.669Z,11.50
2023-10-28T16:39:56.082Z,11.50
2023-10-28T16:42:24.199Z,11.40
2023-10-28T16:44:52.408Z,11.40
2023-10-28T16:47:20.579Z,11.40
2023-10-28T16:49:48.703Z,11.30
2023-10-28T16:52:18.133Z,11.20
2023-10-28T16:54:46.845Z,11.20
2023-10-28T16:57:15.014Z,11.20
2023-10-28T16:59:43.109Z,11.20
2023-10-28T17:02:12.059Z,11.10
2023-10-28T17:04:40.116Z,11.10
2023-10-28T17:07:08.197Z,11.00
2023-10-28T17:09:37.635Z,10.90
2023-10-28T17:12:06.601Z,10.90
2023-10-28T17:14:35.099Z,10.90
2023-10-28T17:17:03.456Z,10.80
2023-10-28T17:19:31.990Z,10.80
2023-10-28T17:22:00.243Z,10.80
2023-10-28T17:24:28.379Z,10.80
2023-10-28T17:26:57.751Z,10.80
2023-10-28T17:29:25.867Z,10.80
2023-10-28T17:31:54.025Z,10.60
2023-10-28T17:34:22.962Z,10.60
2023-10-28T17:36:51.461Z,10.70
2023-10-28T17:39:19.809Z,10.70
2023-10-28T17:41:51.059Z,10.70
2023-10-28T17:44:21.372Z,10.70
2023-10-28T17:46:49.608Z,10.70
2023-10-28T17:49:18.438Z,10.70
2023-10-28T17:51:46.531Z,10.70
2023-10-28T17:54:14.614Z,10.70
2023-10-28T17:56:42.842Z,10.70
2023-10-28T17:59:11.010Z,10.80
2023-10-28T18:01:41.855Z,10.80
2023-10-28T18:04:11.394Z,10.90
2023-10-28T18:06:39.702Z,10.90
2023-10-28T18:09:07.793Z,10.90
2023-10-28T18:11:35.884Z,11.00
2023-10-28T18:14:04.544Z,11.00
2023-10-28T18:16:32.651Z,10.90
2023-10-28T18:19:02.245Z,10.90
2023-10-28T18:21:30.305Z,11.00
2023-10-28T18:23:58.520Z,11.00
2023-10-28T18:26:26.643Z,11.00
2023-10-28T18:28:54.968Z,11.10
2023-10-28T18:31:25.927Z,11.00
2023-10-28T18:33:55.184Z,11.00
2023-10-28T18:36:26.106Z,11.00
2023-10-28T18:38:54.387Z,11.00
2023-10-28T18:41:22.542Z,11.00
2023-10-28T18:43:51.096Z,11.00
2023-10-28T18:46:19.225Z,11.10
2023-10-28T18:48:47.296Z,11.10
2023-10-28T18:51:15.716Z,11.20
2023-10-28T18:53:45.241Z,11.20
2023-10-28T18:56:15.180Z,11.30
2023-10-28T18:58:43.381Z,11.30
2023-10-28T19:01:14.410Z,11.40
2023-10-28T19:03:47.087Z,11.40
2023-10-28T19:06:17.569Z,11.40
2023-10-28T19:08:47.826Z,11.50
2023-10-28T19:11:16.312Z,11.50
2023-10-28T19:13:44.478Z,11.50
2023-10-28T19:16:12.629Z,11.50
2023-10-28T19:18:40.747Z,11.60
2023-10-28T19:21:09.691Z,11.60
2023-10-28T19:23:37.894Z,11.60
2023-10-28T19:26:07.568Z,11.60
2023-10-28T19:28:35.617Z,11.60
2023-10-28T19:31:03.774Z,11.60
2023-10-28T19:33:34.106Z,11.60
2023-10-28T19:36:07.128Z,11.60
2023-10-28T19:38:35.771Z,11.60
2023-10-28T19:41:04.005Z,11.60
2023-10-28T19:43:34.000Z,11.70
2023-10-28T19:46:07.019Z,11.70
2023-10-28T19:48:35.251Z,11.70
2023-10-28T19:51:06.076Z,11.70
2023-10-28T19:53:34.333Z,11.70
2023-10-28T19:56:04.015Z,11.80
2023-10-28T19:58:38.254Z,11.70
2023-10-28T20:01:06.948Z,11.70
2023-10-28T20:03:35.200Z,11.70
2023-10-28T20:06:07.476Z,11.70
2023-10-28T20:08:36.728Z,11.80
2023-10-28T20:11:05.596Z,11.80
2023-10-28T20:13:35.413Z,11.70
2023-10-28T20:16:03.675Z,11.70
2023-10-28T20:18:31.779Z,11.80
2023-10-28T20:20:59.957Z,11.80
2023-10-28T20:23:28.214Z,11.80
2023-10-28T20:25:56.323Z,11.80
2023-10-28T20:28:24.995Z,11.80
2023-10-28T20:30:54.662Z,11.80
2023-10-28T20:33:22.984Z,11.70
2023-10-28T20:35:55.567Z,11.70
2023-10-28T20:38:25.278Z,11.70
2023-10-28T20:40:53.470Z,11.80
2023-10-28T20:43:23.150Z,11.70
2023-10-28T20:45:52.140Z,11.80
2023-10-28T20:48:21.713Z,11.70
2023-10-28T20:50:51.445Z,11.70
2023-10-28T20:53:20.575Z,11.70
2023-10-28T20:55:49.099Z,11.60
2023-10-28T20:58:17.255Z,11.50
2023-10-28T21:00:45.329Z,11.60
2023-10-28T21:03:13.633Z,11.60
2023-10-28T21:05:43.400Z,11.60
2023-10-28T21:08:11.674Z,11.60
2023-10-28T21:10:39.868Z,11.60
2023-10-28T21:13:07.960Z,11.60
2023-10-28T21:15:36.039Z,11.70
2023-10-28T21:18:04.240Z,11.60
2023-10-28T21:20:32.963Z,11.70
2023-10-28T21:23:02.448Z,11.70
2023-10-28T21:25:30.852Z,11.60
2023-10-28T21:27:59.100Z,11.70
2023-10-28T21:30:28.050Z,11.60
2023-10-28T21:32:59.160Z,11.70
2023-10-28T21:35:27.461Z,11.70
2023-10-28T21:37:55.509Z,11.70
2023-10-28T21:40:25.038Z,11.70
2023-10-28T21:42:53.082Z,11.70
2023-10-28T21:45:21.163Z,11.70
2023-10-28T21:47:49.320Z,11.70
2023-10-28T21:50:17.473Z,11.70
2023-10-28T21:52:45.594Z,11.70
2023-10-28T21:55:13.771Z,11.70
2023-10-28T21:57:43.176Z,11.70
2023-10-28T22:00:20.746Z,11.70
2023-10-28T22:02:49.573Z,11.70
2023-10-28T22:05:17.878Z,11.70
2023-10-28T22:07:46.190Z,11.70
2023-10-28T22:10:19.207Z,11.70
2023-10-28T22:12:50.319Z,11.70
2023-10-28T22:15:19.177Z,11.80
2023-10-28T22:17:47.341Z,11.70
2023-10-28T22:20:16.472Z,11.70
2023-10-28T22:22:44.733Z,11.80
2023-10-28T22:25:12.862Z,11.70
2023-10-28T22:27:40.891Z,11.80
2023-10-28T22:30:12.319Z,11.80
2023-10-28T22:32:40.947Z,11.80
2023-10-28T22:35:10.201Z,11.80
2023-10-28T22:37:38.387Z,11.80
2023-10-28T22:40:07.483Z,11.80
2023-10-28T22:42:35.560Z,11.80
2023-10-28T22:45:05.437Z,11.80
2023-10-28T22:47:34.927Z,11.80
2023-10-28T22:50:03.064Z,11.80
2023-10-28T22:52:31.472Z,11.90
2023-10-28T22:54:59.747Z,11.90
2023-10-28T22:57:27.967Z,11.90
2023-10-28T22:59:56.193Z,11.90
2023-10-28T23:02:24.329Z,11.80
2023-10-28T23:04:55.190Z,11.80
2023-10-28T23:07:23.547Z,11.90
2023-10-28T23:09:52.017Z,11.90
2023-10-28T23:12:20.123Z,11.90
2023-10-28T23:14:48.297Z,11.90
2023-10-28T23:17:16.466Z,11.90
2023-10-28T23:19:44.555Z,11.90
2023-10-28T23:22:15.687Z,11.90
2023-10-28T23:24:43.783Z,12.00
2023-10-28T23:27:12.007Z,12.00
2023-10-28T23:29:40.116Z,11.90
2023-10-28T23:32:09.182Z,11.90
2023-10-28T23:34:37.565Z,11.90
2023-10-28T23:37:07.441Z,12.00
2023-10-28T23:39:36.873Z,12.00
2023-10-28T23:42:05.423Z,12.00
2023-10-28T23:44:33.557Z,12.00
2023-10-28T23:47:01.619Z,12.00
2023-10-28T23:49:29.763Z,12.00
2023-10-28T23:51:58.011Z,12.00
2023-10-28T23:54:26.173Z,12.10
2023-10-28T23:56:55.600Z,12.10
2023-10-28T23:59:23.765Z,12.00
